createdAt,value
2024-03-12T00:00:01.701Z,71.25
2024-03-12T00:00:35.105Z,71.25
2024-03-12T00:01:31.045Z,71.21
2024-03-12T00:02:08.796Z,71.29
2024-03-12T00:02:45.945Z,71.51
2024-03-12T00:03:19.130Z,71.60
2024-03-12T00:03:52.262Z,71.61
2024-03-12T00:04:25.607Z,71.65
2024-03-12T00:04:59.137Z,71.72
2024-03-12T00:05:32.148Z,71.73
2024-03-12T00:06:06.840Z,71.65
2024-03-12T00:06:43.331Z,71.60
2024-03-12T00:07:18.106Z,71.81
2024-03-12T00:07:52.108Z,71.98
2024-03-12T00:08:24.989Z,71.89
2024-03-12T00:08:58.109Z,71.97
2024-03-12T00:09:31.216Z,72.06
2024-03-12T00:10:06.377Z,72.18
2024-03-12T00:10:39.689Z,72.32
2024-03-12T00:11:12.716Z,72.44
2024-03-12T00:11:46.737Z,72.54
2024-03-12T00:12:19.662Z,72.55
2024-03-12T00:12:54.151Z,72.51
2024-03-12T00:13:27.720Z,72.39
2024-03-12T00:14:01.118Z,72.47
2024-03-12T00:14:34.968Z,72.42
2024-03-12T00:15:08.486Z,72.48
2024-03-12T00:15:42.811Z,72.52
2024-03-12T00:16:15.929Z,72.36
2024-03-12T00:16:49.008Z,72.41
2024-03-12T00:17:25.432Z,72.39
2024-03-12T00:17:59.562Z,72.35
2024-03-12T00:18:34.560Z,72.32
2024-03-12T00:19:10.602Z,72.52
2024-03-12T00:19:43.638Z,72.56
2024-03-12T00:20:19.387Z,72.53
2024-03-12T00:20:55.693Z,72.53
2024-03-12T00:21:29.268Z,72.53
2024-03-12T00:22:02.270Z,72.54
2024-03-12T00:22:35.922Z,72.64
2024-03-12T00:23:09.154Z,72.74
2024-03-12T00:23:43.417Z,72.80
2024-03-12T00:24:16.593Z,72.88
2024-03-12T00:24:50.992Z,72.85
2024-03-12T00:25:24.233Z,72.81
2024-03-12T00:25:57.556Z,72.87
2024-03-12T00:26:32.383Z,72.92
2024-03-12T00:27:07.234Z,72.89
2024-03-12T00:27:41.390Z,72.89
2024-03-12T00:28:14.474Z,72.86
2024-03-12T00:28:49.949Z,72.94
2024-03-12T00:29:22.983Z,72.90
2024-03-12T00:29:56.574Z,72.93
2024-03-12T00:30:32.171Z,72.97
2024-03-12T00:31:06.413Z,73.13
2024-03-12T00:31:39.869Z,73.06
2024-03-12T00:32:13.621Z,73.06
2024-03-12T00:32:48.741Z,73.06
2024-03-12T00:33:22.102Z,73.06
2024-03-12T00:33:56.680Z,73.12
2024-03-12T00:34:31.141Z,73.12
2024-03-12T00:35:04.686Z,73.19
2024-03-12T00:35:40.119Z,73.15
2024-03-12T00:36:13.490Z,73.12
2024-03-12T00:36:47.111Z,73.12
2024-03-12T00:37:21.702Z,73.14
2024-03-12T00:37:55.686Z,73.15
2024-03-12T00:38:30.292Z,73.15
2024-03-12T00:39:03.991Z,73.20
2024-03-12T00:39:37.458Z,73.29
2024-03-12T00:40:12.687Z,73.28
2024-03-12T00:40:49.439Z,73.23
2024-03-12T00:41:22.560Z,73.17
2024-03-12T00:41:57.717Z,73.08
2024-03-12T00:42:30.669Z,73.07
2024-03-12T00:43:04.701Z,73.04
2024-03-12T00:43:37.882Z,73.05
2024-03-12T00:44:11.114Z,73.03
2024-03-12T00:44:44.680Z,72.99
2024-03-12T00:45:36.394Z,73.03
2024-03-12T00:46:11.420Z,73.03
2024-03-12T00:46:44.572Z,73.05
2024-03-12T00:47:17.778Z,73.04
2024-03-12T00:47:50.928Z,73.09
2024-03-12T00:48:25.159Z,73.14
2024-03-12T00:49:01.011Z,73.04
2024-03-12T00:49:34.095Z,73.03
2024-03-12T00:50:08.943Z,72.95
2024-03-12T00:50:43.632Z,72.92
2024-03-12T00:51:16.829Z,72.96
2024-03-12T00:51:50.054Z,73.00
2024-03-12T00:52:23.797Z,72.99
2024-03-12T00:52:56.842Z,72.95
2024-03-12T00:53:31.043Z,73.03
2024-03-12T00:54:05.280Z,73.04
2024-03-12T00:54:38.623Z,73.13
2024-03-12T00:55:19.873Z,73.16
2024-03-12T00:55:54.445Z,73.21
2024-03-12T00:56:28.785Z,73.13
2024-03-12T00:57:01.817Z,73.16
2024-03-12T00:57:50.982Z,73.20
2024-03-12T00:58:24.851Z,73.15
2024-03-12T00:58:57.794Z,73.25
2024-03-12T00:59:30.843Z,73.22
2024-03-12T01:00:04.728Z,73.30
2024-03-12T01:00:38.345Z,73.32
2024-03-12T01:01:15.939Z,73.38
2024-03-12T01:01:58.415Z,73.45
2024-03-12T01:02:34.508Z,73.41
2024-03-12T01:03:09.836Z,73.40
2024-03-12T01:03:47.970Z,73.47
2024-03-12T01:04:24.792Z,73.45
2024-03-12T01:05:01.060Z,73.41
2024-03-12T01:05:37.427Z,73.35
2024-03-12T01:06:12.898Z,73.27
2024-03-12T01:06:50.654Z,73.18
2024-03-12T01:07:23.769Z,73.23
2024-03-12T01:07:59.873Z,73.22
2024-03-12T01:08:33.004Z,73.23
2024-03-12T01:09:07.507Z,73.27
2024-03-12T01:09:40.808Z,73.32
2024-03-12T01:10:13.906Z,73.47
2024-03-12T01:10:49.022Z,73.54
2024-03-12T01:11:24.073Z,73.55
2024-03-12T01:11:57.215Z,73.56
2024-03-12T01:12:30.584Z,73.59
2024-03-12T01:13:07.688Z,73.65
2024-03-12T01:13:41.507Z,73.70
2024-03-12T01:14:16.149Z,73.67
2024-03-12T01:14:49.262Z,73.62
2024-03-12T01:15:24.997Z,73.62
2024-03-12T01:15:59.173Z,73.85
2024-03-12T01:16:34.823Z,73.75
2024-03-12T01:17:08.079Z,73.76
2024-03-12T01:17:49.977Z,73.72
2024-03-12T01:18:23.069Z,73.61
2024-03-12T01:18:57.765Z,73.59
2024-03-12T01:19:32.863Z,73.48
2024-03-12T01:20:10.666Z,73.54
2024-03-12T01:20:45.195Z,73.58
2024-03-12T01:21:18.256Z,73.70
2024-03-12T01:21:54.586Z,73.67
2024-03-12T01:22:28.229Z,73.71
2024-03-12T01:23:01.377Z,73.64
2024-03-12T01:23:34.360Z,73.47
2024-03-12T01:24:08.567Z,73.37
2024-03-12T01:24:44.701Z,73.36
2024-03-12T01:25:17.953Z,73.40
2024-03-12T01:25:51.010Z,73.47
2024-03-12T01:26:27.036Z,73.53
2024-03-12T01:27:00.222Z,73.59
2024-03-12T01:27:34.813Z,73.61
2024-03-12T01:28:11.509Z,73.75
2024-03-12T01:28:44.884Z,73.67
2024-03-12T01:29:19.074Z,73.73
2024-03-12T01:29:52.179Z,73.70
2024-03-12T01:30:28.882Z,73.72
2024-03-12T01:31:02.332Z,73.67
2024-03-12T01:31:35.369Z,73.68
2024-03-12T01:32:10.524Z,73.71
2024-03-12T01:32:46.951Z,73.79
2024-03-12T01:33:20.764Z,73.86
2024-03-12T01:33:53.860Z,73.87
2024-03-12T01:34:30.013Z,73.78
2024-03-12T01:35:05.071Z,73.70
2024-03-12T01:35:41.922Z,73.80
2024-03-12T01:36:22.113Z,73.92
2024-03-12T01:36:55.535Z,73.92
2024-03-12T01:37:31.056Z,74.05
2024-03-12T01:38:04.369Z,74.18
2024-03-12T01:38:37.426Z,74.22
2024-03-12T01:39:26.426Z,74.14
2024-03-12T01:39:59.629Z,74.00
2024-03-12T01:40:32.677Z,74.02
2024-03-12T01:41:06.624Z,74.05
2024-03-12T01:41:43.075Z,74.11
2024-03-12T01:42:16.821Z,74.17
2024-03-12T01:42:55.022Z,74.32
2024-03-12T01:43:29.302Z,74.29
2024-03-12T01:44:07.550Z,74.35
2024-03-12T01:44:40.876Z,74.38
2024-03-12T01:45:17.094Z,74.55
2024-03-12T01:45:50.095Z,74.61
2024-03-12T01:46:23.265Z,74.65
2024-03-12T01:46:56.310Z,74.74
2024-03-12T01:47:30.384Z,74.78
2024-03-12T01:48:12.265Z,74.75
2024-03-12T01:48:45.908Z,74.75
2024-03-12T01:49:19.075Z,74.84
2024-03-12T01:49:52.045Z,74.89
2024-03-12T01:50:28.519Z,74.89
2024-03-12T01:51:01.490Z,74.98
2024-03-12T01:51:34.499Z,75.06
2024-03-12T01:52:09.093Z,74.99
2024-03-12T01:52:52.120Z,74.99
2024-03-12T01:53:35.144Z,74.83
2024-03-12T01:54:10.016Z,74.78
2024-03-12T01:54:45.114Z,74.76
2024-03-12T01:55:19.994Z,74.82
2024-03-12T01:55:53.297Z,74.96
2024-03-12T01:56:26.323Z,75.07
2024-03-12T01:56:59.387Z,75.21
2024-03-12T01:57:32.390Z,75.39
2024-03-12T01:58:05.580Z,75.42
2024-03-12T01:58:38.489Z,75.45
2024-03-12T01:59:13.934Z,75.38
2024-03-12T01:59:46.776Z,75.43
2024-03-12T02:00:19.915Z,75.46
2024-03-12T02:00:53.169Z,75.57
2024-03-12T02:01:26.781Z,75.67
2024-03-12T02:02:03.182Z,75.77
2024-03-12T02:02:36.402Z,75.78
2024-03-12T02:03:10.340Z,75.73
2024-03-12T02:03:44.362Z,75.83
2024-03-12T02:04:17.589Z,75.85
2024-03-12T02:04:51.624Z,75.81
2024-03-12T02:05:24.673Z,75.85
2024-03-12T02:05:58.369Z,75.83
2024-03-12T02:06:31.350Z,75.82
2024-03-12T02:07:05.322Z,75.85
2024-03-12T02:07:39.990Z,75.87
2024-03-12T02:08:13.245Z,75.96
2024-03-12T02:08:47.573Z,75.99
2024-03-12T02:09:22.373Z,76.16
2024-03-12T02:09:55.521Z,76.18
2024-03-12T02:10:28.496Z,76.33
2024-03-12T02:11:01.881Z,76.43
2024-03-12T02:11:35.148Z,76.50
2024-03-12T02:12:08.923Z,76.54
2024-03-12T02:12:42.801Z,76.59
2024-03-12T02:13:16.308Z,76.54
2024-03-12T02:13:52.380Z,76.51
2024-03-12T02:14:25.446Z,76.56
2024-03-12T02:15:04.156Z,76.68
2024-03-12T02:15:37.181Z,76.75
2024-03-12T02:16:11.146Z,76.86
2024-03-12T02:16:45.036Z,76.84
2024-03-12T02:17:18.289Z,76.85
2024-03-12T02:17:54.451Z,76.90
2024-03-12T02:18:27.573Z,76.95
2024-03-12T02:19:00.698Z,77.04
2024-03-12T02:19:35.225Z,77.11
2024-03-12T02:20:11.605Z,77.09
2024-03-12T02:20:44.535Z,77.10
2024-03-12T02:21:17.775Z,77.16
2024-03-12T02:21:50.846Z,77.24
2024-03-12T02:22:27.835Z,77.32
2024-03-12T02:23:00.906Z,77.36
2024-03-12T02:23:41.246Z,77.44
2024-03-12T02:24:14.311Z,77.45
2024-03-12T02:24:48.283Z,77.38
2024-03-12T02:25:21.322Z,77.44
2024-03-12T02:25:54.317Z,77.36
2024-03-12T02:26:27.188Z,77.45
2024-03-12T02:27:01.056Z,77.41
2024-03-12T02:27:34.032Z,77.40
2024-03-12T02:28:07.549Z,77.42
2024-03-12T02:28:40.630Z,77.48
2024-03-12T02:29:14.308Z,77.54
2024-03-12T02:29:48.545Z,77.56
2024-03-12T02:30:22.160Z,77.58
2024-03-12T02:30:55.298Z,77.52
2024-03-12T02:31:28.457Z,77.61
2024-03-12T02:32:01.414Z,77.60
2024-03-12T02:32:34.382Z,77.65
2024-03-12T02:33:07.305Z,77.68
2024-03-12T02:33:41.965Z,77.82
2024-03-12T02:34:15.046Z,77.92
2024-03-12T02:34:50.496Z,78.02
2024-03-12T02:35:23.350Z,78.06
2024-03-12T02:35:56.653Z,78.11
2024-03-12T02:36:29.564Z,78.10
2024-03-12T02:37:03.372Z,78.12
2024-03-12T02:37:36.710Z,78.11
2024-03-12T02:38:10.001Z,78.06
2024-03-12T02:38:43.027Z,78.08
2024-03-12T02:39:16.303Z,78.06
2024-03-12T02:39:49.309Z,78.07
2024-03-12T02:40:22.510Z,78.02
2024-03-12T02:40:55.431Z,78.06
2024-03-12T02:41:29.104Z,78.15
2024-03-12T02:42:02.169Z,78.20
2024-03-12T02:42:35.141Z,78.20
2024-03-12T02:43:08.161Z,78.28
2024-03-12T02:43:42.484Z,78.29
2024-03-12T02:44:15.500Z,78.31
2024-03-12T02:44:48.589Z,78.30
2024-03-12T02:45:22.704Z,78.24
2024-03-12T02:45:56.405Z,78.33
2024-03-12T02:46:29.385Z,78.40
2024-03-12T02:47:04.236Z,78.41
2024-03-12T02:47:37.334Z,78.43
2024-03-12T02:48:10.856Z,78.39
2024-03-12T02:48:43.932Z,78.41
2024-03-12T02:49:18.239Z,78.38
2024-03-12T02:49:51.252Z,78.41
2024-03-12T02:50:25.688Z,78.45
2024-03-12T02:51:10.316Z,78.55
2024-03-12T02:51:51.246Z,78.49
2024-03-12T02:52:24.126Z,78.51
2024-03-12T02:52:57.359Z,78.40
2024-03-12T02:53:30.700Z,78.47
2024-03-12T02:54:06.151Z,78.54
2024-03-12T02:54:47.070Z,78.62
2024-03-12T02:55:20.418Z,78.61
2024-03-12T02:55:53.568Z,78.50
2024-03-12T02:56:26.868Z,78.51
2024-03-12T02:56:59.907Z,78.46
2024-03-12T02:57:33.224Z,78.50
2024-03-12T02:58:06.378Z,78.44
2024-03-12T02:58:39.562Z,78.48
2024-03-12T02:59:13.396Z,78.45
2024-03-12T02:59:46.421Z,78.54
2024-03-12T03:00:19.570Z,78.65
2024-03-12T03:00:54.848Z,78.67
2024-03-12T03:01:28.746Z,78.70
2024-03-12T03:02:02.041Z,78.71
2024-03-12T03:02:35.024Z,78.85
2024-03-12T03:03:08.296Z,78.90
2024-03-12T03:04:01.707Z,78.84
2024-03-12T03:04:38.074Z,78.76
2024-03-12T03:05:11.534Z,78.69
2024-03-12T03:05:47.948Z,78.72
2024-03-12T03:06:21.329Z,78.76
2024-03-12T03:06:58.975Z,78.63
2024-03-12T03:07:32.065Z,78.60
2024-03-12T03:08:05.065Z,78.57
2024-03-12T03:08:38.772Z,78.62
2024-03-12T03:09:11.928Z,78.64
2024-03-12T03:09:45.604Z,78.74
2024-03-12T03:10:19.044Z,78.84
2024-03-12T03:10:52.036Z,78.91
2024-03-12T03:11:25.393Z,78.84
2024-03-12T03:11:59.717Z,78.90
2024-03-12T03:12:32.872Z,78.96
2024-03-12T03:13:06.012Z,78.96
2024-03-12T03:13:39.477Z,78.99
2024-03-12T03:14:12.411Z,79.11
2024-03-12T03:14:45.420Z,79.17
2024-03-12T03:15:19.464Z,79.17
2024-03-12T03:15:53.184Z,79.28
2024-03-12T03:16:26.416Z,79.29
2024-03-12T03:16:59.528Z,79.33
2024-03-12T03:17:32.561Z,79.31
2024-03-12T03:18:05.944Z,79.32
2024-03-12T03:18:39.085Z,79.38
2024-03-12T03:19:12.241Z,79.39
2024-03-12T03:19:45.133Z,79.40
2024-03-12T03:20:18.214Z,79.45
2024-03-12T03:20:51.245Z,79.48
2024-03-12T03:21:25.385Z,79.53
2024-03-12T03:21:58.571Z,79.55
2024-03-12T03:22:31.716Z,79.60
2024-03-12T03:23:05.929Z,79.61
2024-03-12T03:23:42.551Z,79.66
2024-03-12T03:24:15.625Z,79.60
2024-03-12T03:24:48.734Z,79.61
2024-03-12T03:25:22.279Z,79.61
2024-03-12T03:25:55.450Z,79.62
2024-03-12T03:26:28.705Z,79.61
2024-03-12T03:27:01.727Z,79.65
2024-03-12T03:27:34.903Z,79.66
2024-03-12T03:28:08.087Z,79.67
2024-03-12T03:28:41.093Z,79.74
2024-03-12T03:29:14.450Z,79.84
2024-03-12T03:29:47.601Z,79.78
2024-03-12T03:30:20.736Z,79.76
2024-03-12T03:30:54.805Z,79.78
2024-03-12T03:31:28.028Z,79.77
2024-03-12T03:32:01.226Z,79.82
2024-03-12T03:32:36.687Z,79.85
2024-03-12T03:33:10.114Z,79.87
2024-03-12T03:33:48.712Z,79.88
2024-03-12T03:34:21.886Z,79.85
2024-03-12T03:34:55.097Z,79.87
2024-03-12T03:35:30.404Z,79.93
2024-03-12T03:36:06.830Z,79.97
2024-03-12T03:36:41.051Z,79.94
2024-03-12T03:37:15.223Z,79.98
2024-03-12T03:37:48.747Z,80.04
2024-03-12T03:38:22.449Z,80.08
2024-03-12T03:39:16.650Z,80.11
2024-03-12T03:39:49.951Z,80.14
2024-03-12T03:40:27.292Z,80.18
2024-03-12T03:41:00.689Z,80.20
2024-03-12T03:41:33.897Z,80.16
2024-03-12T03:42:08.072Z,80.16
2024-03-12T03:42:54.045Z,80.11
2024-03-12T03:43:27.418Z,80.12
2024-03-12T03:44:01.018Z,80.03
2024-03-12T03:44:34.297Z,80.04
2024-03-12T03:45:07.451Z,80.06
2024-03-12T03:45:40.872Z,80.00
2024-03-12T03:46:13.942Z,80.01
2024-03-12T03:46:47.278Z,80.02
2024-03-12T03:47:35.150Z,79.98
2024-03-12T03:48:08.673Z,80.00
2024-03-12T03:48:42.139Z,80.01
2024-03-12T03:49:15.473Z,79.99
2024-03-12T03:49:49.045Z,80.18
2024-03-12T03:50:22.190Z,80.22
2024-03-12T03:50:55.337Z,80.24
2024-03-12T03:51:28.333Z,80.26
2024-03-12T03:52:02.532Z,80.25
2024-03-12T03:52:35.766Z,80.35
2024-03-12T03:53:09.423Z,80.33
2024-03-12T03:53:45.295Z,80.35
2024-03-12T03:54:18.300Z,80.36
2024-03-12T03:54:52.471Z,80.32
2024-03-12T03:55:28.686Z,80.30
2024-03-12T03:56:01.791Z,80.41
2024-03-12T03:56:34.816Z,80.46
2024-03-12T03:57:10.103Z,80.41
2024-03-12T03:57:43.270Z,80.26
2024-03-12T03:58:16.452Z,80.20
2024-03-12T03:58:50.012Z,80.29
2024-03-12T03:59:23.108Z,80.38
2024-03-12T03:59:57.950Z,80.33
2024-03-12T04:00:33.649Z,80.26
2024-03-12T04:01:07.039Z,80.29
2024-03-12T04:01:40.736Z,80.45
2024-03-12T04:02:17.892Z,80.61
2024-03-12T04:02:51.207Z,80.59
2024-03-12T04:03:26.580Z,80.51
2024-03-12T04:04:09.297Z,80.51
2024-03-12T04:04:44.144Z,80.53
2024-03-12T04:05:17.732Z,80.66
2024-03-12T04:05:51.448Z,80.62
2024-03-12T04:06:24.848Z,80.57
2024-03-12T04:06:58.029Z,80.56
2024-03-12T04:07:31.330Z,80.53
2024-03-12T04:08:04.828Z,80.50
2024-03-12T04:08:37.968Z,80.47
2024-03-12T04:09:11.122Z,80.46
2024-03-12T04:09:44.504Z,80.55
2024-03-12T04:10:17.763Z,80.51
2024-03-12T04:10:50.746Z,80.21
2024-03-12T04:11:26.858Z,79.75
2024-03-12T04:12:02.405Z,79.22
2024-03-12T04:12:35.527Z,78.60
2024-03-12T04:13:10.646Z,77.94
2024-03-12T04:13:44.042Z,77.25
2024-03-12T04:14:19.281Z,76.65
2024-03-12T04:14:52.680Z,76.14
2024-03-12T04:15:30.190Z,75.39
2024-03-12T04:16:04.635Z,74.69
2024-03-12T04:16:37.910Z,74.37
2024-03-12T04:17:11.355Z,73.92
2024-03-12T04:17:45.620Z,73.32
2024-03-12T04:18:20.173Z,73.08
2024-03-12T04:18:53.884Z,72.29
2024-03-12T04:19:30.748Z,72.07
2024-03-12T04:20:10.414Z,72.05
2024-03-12T04:20:43.325Z,71.80
2024-03-12T04:21:17.385Z,71.19
2024-03-12T04:21:50.445Z,71.01
2024-03-12T04:22:23.386Z,70.77
2024-03-12T04:22:56.955Z,70.63
2024-03-12T04:23:29.950Z,70.40
2024-03-12T04:24:03.171Z,70.40
2024-03-12T04:24:38.241Z,70.29
2024-03-12T04:25:13.535Z,70.15
2024-03-12T04:25:46.568Z,69.88
2024-03-12T04:26:21.088Z,69.59
2024-03-12T04:26:54.102Z,69.38
2024-03-12T04:27:28.574Z,69.41
2024-03-12T04:28:01.622Z,69.30
2024-03-12T04:28:34.673Z,69.15
2024-03-12T04:29:07.556Z,68.96
2024-03-12T04:29:41.305Z,68.70
2024-03-12T04:30:15.169Z,68.80
2024-03-12T04:30:50.248Z,68.73
2024-03-12T04:31:23.365Z,68.60
2024-03-12T04:31:56.328Z,68.56
2024-03-12T04:32:29.349Z,68.42
2024-03-12T04:33:03.007Z,68.40
2024-03-12T04:33:37.430Z,68.17
2024-03-12T04:34:10.827Z,68.07
2024-03-12T04:34:45.571Z,67.99
2024-03-12T04:35:18.836Z,67.75
2024-03-12T04:35:53.327Z,67.75
2024-03-12T04:36:26.296Z,67.65
2024-03-12T04:36:59.868Z,67.41
2024-03-12T04:37:33.354Z,67.30
2024-03-12T04:38:09.189Z,67.15
2024-03-12T04:38:42.337Z,67.13
2024-03-12T04:39:33.792Z,67.28
2024-03-12T04:40:10.656Z,67.58
2024-03-12T04:40:43.964Z,67.79
2024-03-12T04:41:21.873Z,68.13
2024-03-12T04:41:55.168Z,68.49
2024-03-12T04:42:28.449Z,68.94
2024-03-12T04:43:03.627Z,69.29
2024-03-12T04:43:37.554Z,69.76
2024-03-12T04:44:10.687Z,70.10
2024-03-12T04:44:43.858Z,70.48
2024-03-12T04:45:17.096Z,70.86
2024-03-12T04:45:50.081Z,71.20
2024-03-12T04:46:23.121Z,71.39
2024-03-12T04:46:56.295Z,71.55
2024-03-12T04:47:29.267Z,71.82
2024-03-12T04:48:02.328Z,72.10
2024-03-12T04:48:35.603Z,72.36
2024-03-12T04:49:08.893Z,72.58
2024-03-12T04:49:42.180Z,72.90
2024-03-12T04:50:16.409Z,73.07
2024-03-12T04:50:49.453Z,73.18
2024-03-12T04:51:22.466Z,73.28
2024-03-12T04:51:56.372Z,73.43
2024-03-12T04:52:29.532Z,73.52
2024-03-12T04:53:02.510Z,73.70
2024-03-12T04:53:35.844Z,73.82
2024-03-12T04:54:09.382Z,73.97
2024-03-12T04:54:42.975Z,74.10
2024-03-12T04:55:16.109Z,74.34
2024-03-12T04:55:49.122Z,74.60
2024-03-12T04:56:22.473Z,74.77
2024-03-12T04:56:58.173Z,74.91
2024-03-12T04:57:31.145Z,74.99
2024-03-12T04:58:07.521Z,75.16
2024-03-12T04:58:40.769Z,75.19
2024-03-12T04:59:16.910Z,75.35
2024-03-12T04:59:50.011Z,75.50
2024-03-12T05:00:23.231Z,75.70
2024-03-12T05:00:56.597Z,75.94
2024-03-12T05:01:29.850Z,76.05
2024-03-12T05:02:03.002Z,76.17
2024-03-12T05:02:36.114Z,76.23
2024-03-12T05:03:09.106Z,76.34
2024-03-12T05:03:42.218Z,76.43
2024-03-12T05:04:22.729Z,76.44
2024-03-12T05:04:56.714Z,76.36
2024-03-12T05:05:29.675Z,76.49
2024-03-12T05:06:02.658Z,76.69
2024-03-12T05:06:35.859Z,76.78
2024-03-12T05:07:09.279Z,76.79
2024-03-12T05:07:42.380Z,76.80
2024-03-12T05:08:15.390Z,76.81
2024-03-12T05:08:48.671Z,76.95
2024-03-12T05:09:21.626Z,77.07
2024-03-12T05:09:54.642Z,77.21
2024-03-12T05:10:28.245Z,77.28
2024-03-12T05:11:02.689Z,77.36
2024-03-12T05:11:39.329Z,77.50
2024-03-12T05:12:12.437Z,77.74
2024-03-12T05:12:48.610Z,77.84
2024-03-12T05:13:32.797Z,77.92
2024-03-12T05:14:07.230Z,78.05
2024-03-12T05:14:40.526Z,78.08
2024-03-12T05:15:13.826Z,78.13
2024-03-12T05:15:46.865Z,78.26
2024-03-12T05:16:22.036Z,78.26
2024-03-12T05:16:58.107Z,78.24
2024-03-12T05:17:31.408Z,78.32
2024-03-12T05:18:04.989Z,78.52
2024-03-12T05:18:38.053Z,78.49
2024-03-12T05:19:12.869Z,78.49
2024-03-12T05:19:46.155Z,78.53
2024-03-12T05:20:20.055Z,78.62
2024-03-12T05:20:53.416Z,78.65
2024-03-12T05:21:30.708Z,78.71
2024-03-12T05:22:05.104Z,78.75
2024-03-12T05:22:38.356Z,78.89
2024-03-12T05:23:11.860Z,79.07
2024-03-12T05:23:45.361Z,79.08
2024-03-12T05:24:19.244Z,79.05
2024-03-12T05:24:52.461Z,79.06
2024-03-12T05:25:40.146Z,79.08
2024-03-12T05:26:16.636Z,79.11
2024-03-12T05:26:51.256Z,79.29
2024-03-12T05:27:34.941Z,79.31
2024-03-12T05:28:11.721Z,79.36
2024-03-12T05:28:45.415Z,79.43
2024-03-12T05:29:18.944Z,79.38
2024-03-12T05:29:55.344Z,79.36
2024-03-12T05:30:30.211Z,79.35
2024-03-12T05:31:03.542Z,79.39
2024-03-12T05:31:39.549Z,79.45
2024-03-12T05:32:22.591Z,79.57
2024-03-12T05:32:57.345Z,79.61
2024-03-12T05:33:31.408Z,79.65
2024-03-12T05:34:04.572Z,79.47
2024-03-12T05:34:40.726Z,79.42
2024-03-12T05:35:22.942Z,79.38
2024-03-12T05:35:56.269Z,79.51
2024-03-12T05:36:42.086Z,79.57
2024-03-12T05:37:30.457Z,79.61
2024-03-12T05:38:13.008Z,79.68
2024-03-12T05:38:56.166Z,79.81
2024-03-12T05:39:48.736Z,79.87
2024-03-12T05:40:30.936Z,79.77
2024-03-12T05:41:09.887Z,79.76
2024-03-12T05:41:50.569Z,79.74
2024-03-12T05:42:41.741Z,79.68
2024-03-12T05:43:33.221Z,79.67
2024-03-12T05:44:24.658Z,79.65
2024-03-12T05:45:16.377Z,79.73
2024-03-12T05:46:07.975Z,79.77
2024-03-12T05:46:59.669Z,79.77
2024-03-12T05:47:51.454Z,79.84
2024-03-12T05:48:24.523Z,79.79
2024-03-12T05:48:57.912Z,79.90
2024-03-12T05:49:32.150Z,79.97
2024-03-12T05:50:06.720Z,80.02
2024-03-12T05:50:40.370Z,80.04
2024-03-12T05:51:13.486Z,80.14
2024-03-12T05:51:46.749Z,80.15
2024-03-12T05:52:20.420Z,80.21
2024-03-12T05:52:55.193Z,80.28
2024-03-12T05:53:28.493Z,80.27
2024-03-12T05:54:03.549Z,80.33
2024-03-12T05:54:36.688Z,80.38
2024-03-12T05:55:10.053Z,80.51
2024-03-12T05:55:45.865Z,80.60
2024-03-12T05:56:19.656Z,80.65
2024-03-12T05:56:53.868Z,80.65
2024-03-12T05:57:27.098Z,80.65
2024-03-12T05:58:01.173Z,80.67
2024-03-12T05:58:34.353Z,80.62
2024-03-12T05:59:08.589Z,80.62
2024-03-12T05:59:42.930Z,80.59
2024-03-12T06:00:16.098Z,80.62
2024-03-12T06:00:49.990Z,80.62
2024-03-12T06:01:25.456Z,80.62
2024-03-12T06:01:59.349Z,80.61
2024-03-12T06:02:34.651Z,80.62
2024-03-12T06:03:08.129Z,80.63
2024-03-12T06:03:41.415Z,80.60
2024-03-12T06:04:16.299Z,80.56
2024-03-12T06:04:49.353Z,80.56
2024-03-12T06:05:22.349Z,80.55
2024-03-12T06:05:55.362Z,80.49
2024-03-12T06:06:28.571Z,80.50
2024-03-12T06:07:02.989Z,80.53
2024-03-12T06:07:36.382Z,80.53
2024-03-12T06:08:09.320Z,80.50
2024-03-12T06:08:42.373Z,80.49
2024-03-12T06:09:16.236Z,80.50
2024-03-12T06:09:49.237Z,80.50
2024-03-12T06:10:25.435Z,80.52
2024-03-12T06:11:06.067Z,80.54
2024-03-12T06:11:40.953Z,80.64
2024-03-12T06:12:14.234Z,80.65
2024-03-12T06:12:47.680Z,80.64
2024-03-12T06:13:24.145Z,80.64
2024-03-12T06:14:01.346Z,80.65
2024-03-12T06:14:37.360Z,80.64
2024-03-12T06:15:10.443Z,80.59
2024-03-12T06:15:45.553Z,80.64
2024-03-12T06:16:19.715Z,80.60
2024-03-12T06:16:53.109Z,80.61
2024-03-12T06:17:26.596Z,80.62
2024-03-12T06:17:59.631Z,80.61
2024-03-12T06:18:32.745Z,80.65
2024-03-12T06:19:05.776Z,80.64
2024-03-12T06:19:41.145Z,80.64
2024-03-12T06:20:14.241Z,80.63
2024-03-12T06:20:47.439Z,80.70
2024-03-12T06:21:20.370Z,80.97
2024-03-12T06:21:53.378Z,81.01
2024-03-12T06:22:26.482Z,81.03
2024-03-12T06:22:59.404Z,81.11
2024-03-12T06:23:32.474Z,81.20
2024-03-12T06:24:07.019Z,81.24
2024-03-12T06:24:40.907Z,81.15
2024-03-12T06:25:14.713Z,81.17
2024-03-12T06:25:48.403Z,81.18
2024-03-12T06:26:22.467Z,81.11
2024-03-12T06:26:56.422Z,81.10
2024-03-12T06:27:30.376Z,81.08
2024-03-12T06:28:06.814Z,81.12
2024-03-12T06:28:40.220Z,81.19
2024-03-12T06:29:15.191Z,81.26
2024-03-12T06:29:52.108Z,81.33
2024-03-12T06:30:25.015Z,81.28
2024-03-12T06:30:58.468Z,81.30
2024-03-12T06:31:32.526Z,81.32
2024-03-12T06:32:05.441Z,81.30
2024-03-12T06:32:38.493Z,81.28
2024-03-12T06:33:13.448Z,81.17
2024-03-12T06:33:46.662Z,81.18
2024-03-12T06:34:19.789Z,81.09
2024-03-12T06:34:52.859Z,81.05
2024-03-12T06:35:25.831Z,81.13
2024-03-12T06:35:58.887Z,81.25
2024-03-12T06:36:33.619Z,81.32
2024-03-12T06:37:06.883Z,81.31
2024-03-12T06:37:40.148Z,81.29
2024-03-12T06:38:13.091Z,81.17
2024-03-12T06:38:48.362Z,81.16
2024-03-12T06:39:21.709Z,81.19
2024-03-12T06:39:55.579Z,81.16
2024-03-12T06:40:28.842Z,81.16
2024-03-12T06:41:05.034Z,81.18
2024-03-12T06:41:38.152Z,81.18
2024-03-12T06:42:13.820Z,81.12
2024-03-12T06:42:46.975Z,81.08
2024-03-12T06:43:21.327Z,81.10
2024-03-12T06:43:54.569Z,81.12
2024-03-12T06:44:27.609Z,81.11
2024-03-12T06:45:02.394Z,81.11
2024-03-12T06:45:35.984Z,81.15
2024-03-12T06:46:10.766Z,81.19
2024-03-12T06:46:47.034Z,81.09
2024-03-12T06:47:23.558Z,81.07
2024-03-12T06:48:01.663Z,81.06
2024-03-12T06:48:34.819Z,81.03
2024-03-12T06:49:10.568Z,80.98
2024-03-12T06:49:45.826Z,81.03
2024-03-12T06:50:19.661Z,81.00
2024-03-12T06:50:52.916Z,80.92
2024-03-12T06:51:33.102Z,80.88
2024-03-12T06:52:07.992Z,80.85
2024-03-12T06:52:42.908Z,80.81
2024-03-12T06:53:16.218Z,80.81
2024-03-12T06:53:49.130Z,80.74
2024-03-12T06:54:27.814Z,80.72
2024-03-12T06:55:02.932Z,80.72
2024-03-12T06:55:36.968Z,80.68
2024-03-12T06:56:12.622Z,80.68
2024-03-12T06:56:47.750Z,80.63
2024-03-12T06:57:23.456Z,80.59
2024-03-12T06:58:01.581Z,80.61
2024-03-12T06:58:35.550Z,80.64
2024-03-12T06:59:10.226Z,80.58
2024-03-12T06:59:48.475Z,80.51
2024-03-12T07:00:33.548Z,80.53
2024-03-12T07:01:06.569Z,80.59
2024-03-12T07:01:42.330Z,80.59
2024-03-12T07:02:20.144Z,80.64
2024-03-12T07:03:25.768Z,80.78
2024-03-12T07:03:58.856Z,80.73
2024-03-12T07:04:44.679Z,80.66
2024-03-12T07:05:17.978Z,80.66
2024-03-12T07:05:52.134Z,80.63
2024-03-12T07:06:25.461Z,80.59
2024-03-12T07:06:58.379Z,80.54
2024-03-12T07:07:33.958Z,80.59
2024-03-12T07:08:07.345Z,80.55
2024-03-12T07:08:41.069Z,80.61
2024-03-12T07:09:24.242Z,80.63
2024-03-12T07:10:01.013Z,80.44
2024-03-12T07:10:36.877Z,80.33
2024-03-12T07:11:11.785Z,80.27
2024-03-12T07:11:46.238Z,80.24
2024-03-12T07:12:19.898Z,80.20
2024-03-12T07:12:53.593Z,80.19
2024-03-12T07:13:27.728Z,80.23
2024-03-12T07:14:03.698Z,80.29
2024-03-12T07:14:44.737Z,80.30
2024-03-12T07:15:19.433Z,80.39
2024-03-12T07:15:52.555Z,80.41
2024-03-12T07:16:26.814Z,80.49
2024-03-12T07:17:00.828Z,80.57
2024-03-12T07:17:34.513Z,80.60
2024-03-12T07:18:09.088Z,80.62
2024-03-12T07:18:42.472Z,80.70
2024-03-12T07:19:16.630Z,80.74
2024-03-12T07:19:50.748Z,80.73
2024-03-12T07:20:24.171Z,80.79
2024-03-12T07:20:57.498Z,80.78
2024-03-12T07:21:30.668Z,80.79
2024-03-12T07:22:03.913Z,80.77
2024-03-12T07:22:37.876Z,80.79
2024-03-12T07:23:10.873Z,80.85
2024-03-12T07:23:43.840Z,80.89
2024-03-12T07:24:17.084Z,80.90
2024-03-12T07:24:50.158Z,80.87
2024-03-12T07:25:23.166Z,80.88
2024-03-12T07:25:56.975Z,80.89
2024-03-12T07:26:29.961Z,80.84
2024-03-12T07:27:06.680Z,80.79
2024-03-12T07:27:42.774Z,80.71